createdAt,value
2022-12-17T00:00:23.167Z,0.00
2022-12-17T00:01:20.454Z,0.00
2022-12-17T00:02:19.437Z,0.00
2022-12-17T00:03:19.631Z,0.00
2022-12-17T00:04:19.426Z,0.00
2022-12-17T00:05:19.401Z,0.00
2022-12-17T00:06:19.370Z,0.00
2022-12-17T00:07:19.361Z,0.00
2022-12-17T00:08:19.340Z,0.00
2022-12-17T00:09:19.329Z,0.00
2022-12-17T00:10:19.332Z,0.00
2022-12-17T00:11:19.306Z,0.00
2022-12-17T00:12:19.296Z,0.00
2022-12-17T00:13:19.287Z,0.00
2022-12-17T00:14:19.278Z,0.00
2022-12-17T00:15:19.262Z,0.00
2022-12-17T00:16:19.422Z,0.00
2022-12-17T00:17:19.243Z,0.00
2022-12-17T00:18:19.241Z,0.00
2022-12-17T00:19:19.218Z,0.00
2022-12-17T00:20:19.211Z,0.00
2022-12-17T00:21:19.196Z,0.00
2022-12-17T00:22:19.201Z,0.00
2022-12-17T00:23:19.183Z,0.00
2022-12-17T00:24:19.167Z,0.00
2022-12-17T00:25:19.157Z,0.00
2022-12-17T00:26:19.161Z,0.00
2022-12-17T00:27:19.138Z,0.00
2022-12-17T00:28:19.124Z,0.00
2022-12-17T00:29:19.122Z,0.00
2022-12-17T00:30:19.104Z,0.00
2022-12-17T00:31:19.155Z,0.00
2022-12-17T00:32:19.109Z,0.00
2022-12-17T00:33:20.661Z,0.00
2022-12-17T00:34:19.063Z,0.00
2022-12-17T00:35:19.049Z,0.00
2022-12-17T00:36:19.049Z,0.00
2022-12-17T00:37:19.028Z,0.00
2022-12-17T00:38:19.023Z,0.00
2022-12-17T00:39:19.013Z,0.00
2022-12-17T00:40:19.000Z,0.00
2022-12-17T00:41:18.984Z,0.00
2022-12-17T00:42:18.973Z,0.00
2022-12-17T00:43:18.963Z,0.00
2022-12-17T00:44:18.951Z,0.00
2022-12-17T00:45:18.941Z,0.00
2022-12-17T00:46:19.004Z,0.00
2022-12-17T00:47:18.926Z,0.00
2022-12-17T00:48:18.948Z,0.00
2022-12-17T00:49:18.900Z,0.00
2022-12-17T00:50:18.889Z,0.00
2022-12-17T00:51:18.877Z,0.00
2022-12-17T00:52:18.873Z,0.00
2022-12-17T00:53:18.854Z,0.00
2022-12-17T00:54:18.845Z,0.00
2022-12-17T00:55:18.838Z,0.00
2022-12-17T00:56:18.825Z,0.00
2022-12-17T00:57:18.811Z,0.00
2022-12-17T00:58:18.803Z,0.00
2022-12-17T00:59:18.788Z,0.00
2022-12-17T01:00:18.783Z,0.00
2022-12-17T01:01:18.930Z,0.00
2022-12-17T01:02:18.898Z,0.00
2022-12-17T01:03:18.779Z,0.00
2022-12-17T01:04:18.763Z,0.00
2022-12-17T01:05:18.724Z,0.00
2022-12-17T01:06:18.715Z,0.00
2022-12-17T01:07:18.703Z,0.00
2022-12-17T01:08:18.696Z,0.00
2022-12-17T01:09:18.683Z,0.00
2022-12-17T01:10:18.672Z,0.00
2022-12-17T01:11:18.667Z,0.00
2022-12-17T01:12:18.655Z,0.00
2022-12-17T01:13:18.644Z,0.00
2022-12-17T01:14:18.636Z,0.00
2022-12-17T01:15:18.614Z,0.00
2022-12-17T01:16:18.646Z,0.00
2022-12-17T01:17:18.598Z,0.00
2022-12-17T01:18:18.581Z,0.00
2022-12-17T01:19:18.580Z,0.00
2022-12-17T01:20:18.587Z,0.00
2022-12-17T01:21:18.550Z,0.00
2022-12-17T01:22:18.538Z,0.00
2022-12-17T01:23:18.528Z,0.00
2022-12-17T01:24:18.517Z,0.00
2022-12-17T01:25:18.507Z,0.00
2022-12-17T01:26:18.494Z,0.00
2022-12-17T01:27:18.485Z,0.00
2022-12-17T01:28:18.481Z,0.00
2022-12-17T01:29:18.465Z,0.00
2022-12-17T01:30:18.451Z,0.00
2022-12-17T01:31:18.512Z,0.00
2022-12-17T01:32:18.434Z,0.00
2022-12-17T01:33:18.421Z,0.00
2022-12-17T01:34:18.424Z,0.00
2022-12-17T01:35:18.411Z,0.00
2022-12-17T01:36:18.412Z,0.00
2022-12-17T01:37:18.381Z,0.00
2022-12-17T01:38:18.364Z,0.00
2022-12-17T01:39:18.390Z,0.00
2022-12-17T01:40:18.343Z,0.00
2022-12-17T01:41:18.333Z,0.00
2022-12-17T01:42:18.352Z,0.00
2022-12-17T01:43:18.313Z,0.00
2022-12-17T01:44:18.300Z,0.00
2022-12-17T01:45:18.306Z,0.00
2022-12-17T01:46:18.430Z,0.00
2022-12-17T01:47:18.269Z,0.00
2022-12-17T01:48:18.256Z,0.00
2022-12-17T01:49:18.250Z,0.00
2022-12-17T01:50:18.235Z,0.00
2022-12-17T01:51:18.227Z,0.00
2022-12-17T01:52:18.239Z,0.00
2022-12-17T01:53:18.204Z,0.00
2022-12-17T01:54:18.193Z,0.00
2022-12-17T01:55:18.182Z,0.00
2022-12-17T01:56:18.172Z,0.00
2022-12-17T01:57:18.161Z,0.00
2022-12-17T01:58:18.150Z,0.00
2022-12-17T01:59:18.140Z,0.00
2022-12-17T02:00:18.133Z,0.00
2022-12-17T02:01:18.288Z,0.00
2022-12-17T02:02:18.335Z,0.00
2022-12-17T02:03:18.189Z,0.00
2022-12-17T02:04:18.084Z,0.00
2022-12-17T02:05:18.077Z,0.00
2022-12-17T02:06:18.068Z,0.00
2022-12-17T02:07:18.106Z,0.00
2022-12-17T02:08:18.072Z,0.00
2022-12-17T02:09:18.037Z,0.00
2022-12-17T02:10:18.021Z,0.00
2022-12-17T02:11:18.017Z,0.00
2022-12-17T02:12:18.001Z,0.00
2022-12-17T02:13:17.992Z,0.00
2022-12-17T02:14:17.975Z,0.00
2022-12-17T02:15:17.975Z,0.00
2022-12-17T02:16:18.037Z,0.00
2022-12-17T02:17:17.964Z,0.00
2022-12-17T02:18:17.936Z,0.00
2022-12-17T02:19:17.922Z,0.00
2022-12-17T02:20:17.912Z,0.00
2022-12-17T02:21:17.901Z,0.00
2022-12-17T02:22:17.903Z,0.00
2022-12-17T02:23:17.879Z,0.00
2022-12-17T02:24:17.999Z,0.00
2022-12-17T02:25:17.857Z,0.00
2022-12-17T02:26:17.844Z,0.00
2022-12-17T02:27:17.835Z,0.00
2022-12-17T02:28:17.825Z,0.00
2022-12-17T02:29:17.815Z,0.00
2022-12-17T02:30:17.800Z,0.00
2022-12-17T02:31:17.801Z,0.00
2022-12-17T02:32:17.779Z,0.00
2022-12-17T02:33:17.790Z,0.00
2022-12-17T02:34:17.763Z,0.00
2022-12-17T02:35:17.753Z,0.00
2022-12-17T02:36:17.735Z,0.00
2022-12-17T02:37:17.726Z,0.00
2022-12-17T02:38:17.720Z,0.00
2022-12-17T02:39:17.706Z,0.00
2022-12-17T02:40:17.716Z,0.00
2022-12-17T02:41:17.685Z,0.00
2022-12-17T02:42:17.672Z,0.00
2022-12-17T02:43:17.666Z,0.00
2022-12-17T02:44:17.648Z,0.00
2022-12-17T02:45:17.645Z,0.00
2022-12-17T02:46:17.671Z,0.00
2022-12-17T02:47:17.624Z,0.00
2022-12-17T02:48:17.607Z,0.00
2022-12-17T02:49:17.600Z,0.00
2022-12-17T02:50:17.584Z,0.00
2022-12-17T02:51:17.582Z,0.00
2022-12-17T02:52:17.577Z,0.00
2022-12-17T02:53:17.553Z,0.00
2022-12-17T02:54:17.539Z,0.00
2022-12-17T02:55:17.530Z,0.00
2022-12-17T02:56:17.553Z,0.00
2022-12-17T02:57:17.508Z,0.00
2022-12-17T02:58:17.496Z,0.00
2022-12-17T02:59:17.486Z,0.00
2022-12-17T03:00:17.479Z,0.00
2022-12-17T03:01:17.598Z,0.00
2022-12-17T03:02:17.571Z,0.00
2022-12-17T03:03:17.508Z,0.00
2022-12-17T03:04:17.429Z,0.00
2022-12-17T03:05:43.493Z,0.00
2022-12-17T03:06:18.468Z,0.00
2022-12-17T03:07:17.402Z,0.00
2022-12-17T03:08:17.384Z,0.00
2022-12-17T03:09:17.376Z,0.00
2022-12-17T03:10:17.363Z,0.00
2022-12-17T03:11:17.358Z,0.00
2022-12-17T03:12:17.364Z,0.00
2022-12-17T03:13:17.335Z,0.00
2022-12-17T03:14:17.335Z,0.00
2022-12-17T03:15:17.313Z,0.00
2022-12-17T03:16:17.359Z,0.00
2022-12-17T03:17:17.292Z,0.00
2022-12-17T03:18:17.283Z,0.00
2022-12-17T03:19:17.457Z,0.00
2022-12-17T03:20:17.258Z,0.00
2022-12-17T03:21:17.246Z,0.00
2022-12-17T03:22:17.230Z,0.00
2022-12-17T03:23:17.350Z,0.00
2022-12-17T03:24:17.213Z,0.00
2022-12-17T03:25:17.201Z,0.00
2022-12-17T03:26:17.195Z,0.00
2022-12-17T03:27:17.182Z,0.00
2022-12-17T03:28:17.192Z,0.00
2022-12-17T03:29:17.165Z,0.00
2022-12-17T03:30:17.149Z,0.00
2022-12-17T03:31:17.262Z,0.00
2022-12-17T03:32:17.128Z,0.00
2022-12-17T03:33:17.114Z,0.00
2022-12-17T03:34:17.103Z,0.00
2022-12-17T03:35:17.092Z,0.00
2022-12-17T03:36:17.086Z,0.00
2022-12-17T03:37:17.076Z,0.00
2022-12-17T03:38:17.058Z,0.00
2022-12-17T03:39:17.057Z,0.00
2022-12-17T03:40:17.040Z,0.00
2022-12-17T03:41:17.034Z,0.00
2022-12-17T03:42:17.018Z,0.00
2022-12-17T03:43:17.011Z,0.00
2022-12-17T03:44:17.024Z,0.00
2022-12-17T03:45:16.988Z,0.00
2022-12-17T03:46:17.039Z,0.00
2022-12-17T03:47:16.963Z,0.00
2022-12-17T03:48:16.953Z,0.00
2022-12-17T03:49:16.941Z,0.00
2022-12-17T03:50:16.933Z,0.00
2022-12-17T03:51:16.920Z,0.00
2022-12-17T03:52:16.908Z,0.00
2022-12-17T03:53:16.896Z,0.00
2022-12-17T03:54:16.883Z,0.00
2022-12-17T03:55:16.875Z,0.00
2022-12-17T03:56:16.865Z,0.00
2022-12-17T03:57:16.855Z,0.00
2022-12-17T03:58:16.840Z,0.00
2022-12-17T03:59:16.832Z,0.00
2022-12-17T04:00:16.854Z,0.00
2022-12-17T04:01:16.999Z,0.00
2022-12-17T04:02:17.128Z,0.00
2022-12-17T04:03:16.833Z,0.00
2022-12-17T04:04:16.774Z,0.00
2022-12-17T04:05:20.405Z,0.00
2022-12-17T04:06:16.753Z,0.00
2022-12-17T04:07:16.746Z,0.00
2022-12-17T04:08:16.732Z,0.00
2022-12-17T04:09:16.726Z,0.00
2022-12-17T04:10:16.711Z,0.00
2022-12-17T04:11:16.701Z,0.00
2022-12-17T04:12:16.690Z,0.00
2022-12-17T04:13:16.681Z,0.00
2022-12-17T04:14:16.666Z,0.00
2022-12-17T04:15:16.658Z,0.00
2022-12-17T04:16:16.776Z,0.00
2022-12-17T04:17:16.638Z,0.00
2022-12-17T04:18:16.625Z,0.00
2022-12-17T04:19:16.614Z,0.00
2022-12-17T04:20:16.602Z,0.00
2022-12-17T04:21:16.598Z,0.00
2022-12-17T04:22:16.581Z,0.00
2022-12-17T04:23:16.571Z,0.00
2022-12-17T04:24:16.557Z,0.00
2022-12-17T04:25:16.552Z,0.00
2022-12-17T04:26:16.537Z,0.00
2022-12-17T04:27:16.528Z,0.00
2022-12-17T04:28:16.514Z,0.00
2022-12-17T04:29:16.505Z,0.00
2022-12-17T04:30:16.491Z,0.00
2022-12-17T04:31:16.586Z,0.00
2022-12-17T04:32:16.506Z,0.00
2022-12-17T04:33:16.464Z,0.00
2022-12-17T04:34:16.449Z,0.00
2022-12-17T04:35:16.450Z,0.00
2022-12-17T04:36:16.434Z,0.00
2022-12-17T04:37:16.418Z,0.00
2022-12-17T04:38:16.412Z,0.00
2022-12-17T04:39:16.397Z,0.00
2022-12-17T04:40:16.385Z,0.00
2022-12-17T04:41:16.379Z,0.00
2022-12-17T04:42:16.364Z,0.00
2022-12-17T04:43:16.352Z,0.00
2022-12-17T04:44:16.342Z,0.00
2022-12-17T04:45:16.335Z,0.00
2022-12-17T04:46:16.402Z,0.00
2022-12-17T04:47:16.310Z,0.00
2022-12-17T04:48:16.324Z,0.00
2022-12-17T04:49:16.288Z,0.00
2022-12-17T04:50:16.282Z,0.00
2022-12-17T04:51:16.264Z,0.00
2022-12-17T04:52:16.256Z,0.00
2022-12-17T04:53:16.246Z,0.00
2022-12-17T04:54:16.230Z,0.00
2022-12-17T04:55:16.232Z,0.00
2022-12-17T04:56:16.212Z,0.00
2022-12-17T04:57:16.202Z,0.00
2022-12-17T04:58:16.189Z,0.00
2022-12-17T04:59:16.181Z,0.00
2022-12-17T05:00:16.168Z,0.00
2022-12-17T05:01:16.289Z,0.00
2022-12-17T05:02:16.296Z,0.00
2022-12-17T05:03:16.160Z,0.00
2022-12-17T05:04:16.148Z,0.00
2022-12-17T05:05:16.115Z,0.00
2022-12-17T05:06:16.102Z,0.00
2022-12-17T05:07:16.092Z,0.00
2022-12-17T05:08:16.081Z,0.00
2022-12-17T05:09:16.072Z,0.00
2022-12-17T05:10:16.059Z,0.00
2022-12-17T05:11:16.049Z,0.00
2022-12-17T05:12:16.037Z,0.00
2022-12-17T05:13:16.026Z,0.00
2022-12-17T05:14:16.016Z,0.00
2022-12-17T05:15:16.009Z,0.00
2022-12-17T05:16:16.064Z,0.00
2022-12-17T05:17:15.985Z,0.00
2022-12-17T05:18:15.975Z,0.00
2022-12-17T05:19:15.964Z,0.00
2022-12-17T05:20:15.974Z,0.00
2022-12-17T05:21:15.941Z,0.00
2022-12-17T05:22:15.930Z,0.00
2022-12-17T05:23:15.923Z,0.00
2022-12-17T05:24:15.905Z,0.00
2022-12-17T05:25:15.900Z,0.00
2022-12-17T05:26:15.888Z,0.00
2022-12-17T05:27:15.875Z,0.00
2022-12-17T05:28:15.865Z,0.00
2022-12-17T05:29:16.310Z,0.00
2022-12-17T05:30:15.849Z,0.00
2022-12-17T05:31:15.897Z,0.00
2022-12-17T05:32:15.824Z,0.00
2022-12-17T05:33:15.809Z,0.00
2022-12-17T05:34:15.803Z,0.00
2022-12-17T05:35:15.790Z,0.00
2022-12-17T05:36:15.816Z,0.00
2022-12-17T05:37:15.765Z,0.00
2022-12-17T05:38:15.761Z,0.00
2022-12-17T05:39:15.746Z,0.00
2022-12-17T05:40:15.735Z,0.00
2022-12-17T05:41:15.727Z,0.00
2022-12-17T05:42:15.723Z,0.00
2022-12-17T05:43:15.702Z,0.00
2022-12-17T05:44:15.693Z,0.00
2022-12-17T05:45:15.679Z,0.00
2022-12-17T05:46:15.740Z,0.00
2022-12-17T05:47:15.661Z,0.00
2022-12-17T05:48:15.674Z,0.00
2022-12-17T05:49:15.701Z,0.00
2022-12-17T05:50:15.685Z,0.00
2022-12-17T05:51:15.664Z,0.00
2022-12-17T05:52:15.637Z,0.00
2022-12-17T05:53:15.592Z,0.00
2022-12-17T05:54:15.584Z,0.00
2022-12-17T05:55:15.571Z,0.00
2022-12-17T05:56:15.561Z,0.00
2022-12-17T05:57:15.549Z,0.00
2022-12-17T05:58:15.539Z,0.00
2022-12-17T05:59:15.528Z,0.00
2022-12-17T06:00:15.517Z,0.00
2022-12-17T06:01:15.544Z,0.00
2022-12-17T06:02:15.563Z,0.00
2022-12-17T06:03:15.620Z,0.00
2022-12-17T06:04:15.611Z,0.00
2022-12-17T06:05:15.463Z,0.00
2022-12-17T06:06:15.462Z,0.00
2022-12-17T06:07:15.449Z,0.00
2022-12-17T06:08:15.459Z,0.00
2022-12-17T06:09:15.423Z,0.00
2022-12-17T06:10:15.416Z,0.00
2022-12-17T06:11:15.398Z,0.00
2022-12-17T06:12:15.403Z,0.00
2022-12-17T06:13:15.377Z,0.00
2022-12-17T06:14:15.366Z,0.00
2022-12-17T06:15:15.353Z,0.00
2022-12-17T06:16:15.385Z,0.00
2022-12-17T06:17:15.330Z,0.00
2022-12-17T06:18:17.171Z,0.00
2022-12-17T06:19:15.311Z,0.00
2022-12-17T06:20:15.300Z,0.00
2022-12-17T06:21:15.287Z,0.00
2022-12-17T06:22:15.282Z,0.00
2022-12-17T06:23:15.267Z,0.00
2022-12-17T06:24:15.279Z,0.00
2022-12-17T06:25:15.246Z,0.00
2022-12-17T06:26:15.234Z,0.00
2022-12-17T06:27:15.223Z,0.00
2022-12-17T06:28:15.214Z,0.00
2022-12-17T06:29:15.204Z,0.00
2022-12-17T06:30:18.661Z,0.00
2022-12-17T06:31:15.246Z,0.00
2022-12-17T06:32:15.171Z,0.00
2022-12-17T06:33:15.161Z,0.00
2022-12-17T06:34:15.148Z,0.00
2022-12-17T06:35:15.137Z,0.00
2022-12-17T06:36:21.624Z,0.00
2022-12-17T06:37:15.116Z,0.00
2022-12-17T06:38:15.107Z,0.00
2022-12-17T06:39:15.092Z,0.00
2022-12-17T06:40:15.136Z,0.00
2022-12-17T06:41:15.071Z,0.00
2022-12-17T06:42:15.070Z,0.00
2022-12-17T06:43:15.053Z,0.00
2022-12-17T06:44:15.040Z,0.00
2022-12-17T06:45:15.027Z,0.00
2022-12-17T06:46:15.060Z,0.00
2022-12-17T06:47:15.007Z,0.00
2022-12-17T06:48:14.997Z,0.00
2022-12-17T06:49:14.988Z,4.00
2022-12-17T06:50:14.976Z,4.00
2022-12-17T06:51:14.962Z,0.00
2022-12-17T06:52:14.957Z,0.00
2022-12-17T06:53:14.941Z,0.00
2022-12-17T06:54:14.930Z,4.00
2022-12-17T06:55:14.919Z,4.00
2022-12-17T06:56:14.933Z,4.00
2022-12-17T06:57:14.895Z,4.00
2022-12-17T06:58:14.887Z,4.00
2022-12-17T06:59:14.875Z,4.00
2022-12-17T07:00:14.870Z,8.00
2022-12-17T07:01:15.012Z,8.00
2022-12-17T07:02:15.136Z,8.00
2022-12-17T07:03:15.114Z,12.00
2022-12-17T07:04:14.823Z,12.00
2022-12-17T07:05:14.808Z,12.00
2022-12-17T07:06:14.799Z,16.00
2022-12-17T07:07:14.788Z,20.00
2022-12-17T07:08:14.780Z,20.00
2022-12-17T07:09:14.768Z,20.00
2022-12-17T07:10:14.758Z,24.00
2022-12-17T07:11:14.744Z,28.00
2022-12-17T07:12:14.851Z,28.00
2022-12-17T07:13:14.720Z,32.00
2022-12-17T07:14:14.714Z,36.00
2022-12-17T07:15:14.700Z,44.00
2022-12-17T07:16:14.732Z,48.00
2022-12-17T07:17:14.679Z,52.00
2022-12-17T07:18:14.671Z,56.00
2022-12-17T07:19:14.656Z,64.00
2022-12-17T07:20:14.646Z,72.00
2022-12-17T07:21:14.635Z,84.00
2022-12-17T07:22:14.625Z,96.00
2022-12-17T07:23:14.614Z,104.00
2022-12-17T07:24:14.605Z,112.00
2022-12-17T07:25:14.592Z,128.00
2022-12-17T07:26:14.881Z,136.00
2022-12-17T07:27:14.571Z,148.00
2022-12-17T07:28:14.584Z,160.00
2022-12-17T07:29:14.549Z,176.00
2022-12-17T07:30:14.540Z,192.00
2022-12-17T07:31:14.562Z,204.00
2022-12-17T07:32:14.522Z,216.00
2022-12-17T07:33:14.505Z,232.00
2022-12-17T07:34:14.496Z,252.00
2022-12-17T07:35:14.490Z,276.00
2022-12-17T07:36:14.476Z,292.00
2022-12-17T07:37:20.220Z,312.00
2022-12-17T07:38:15.480Z,328.00
2022-12-17T07:39:14.444Z,348.00
2022-12-17T07:40:14.430Z,368.00
2022-12-17T07:41:14.418Z,388.00
2022-12-17T07:42:14.411Z,416.00
2022-12-17T07:43:14.397Z,440.00
2022-12-17T07:44:14.411Z,468.00
2022-12-17T07:45:14.374Z,504.00
2022-12-17T07:46:14.388Z,536.00
2022-12-17T07:47:14.353Z,560.00
2022-12-17T07:48:14.346Z,584.00
2022-12-17T07:49:14.331Z,616.00
2022-12-17T07:50:14.328Z,628.00
2022-12-17T07:51:14.310Z,636.00
2022-12-17T07:52:14.299Z,700.00
2022-12-17T07:53:14.290Z,692.00
2022-12-17T07:54:14.280Z,720.00
2022-12-17T07:55:18.049Z,744.00
2022-12-17T07:56:14.258Z,784.00
2022-12-17T07:57:14.248Z,804.00
2022-12-17T07:58:14.235Z,860.00
2022-12-17T07:59:14.225Z,884.00
2022-12-17T08:00:14.236Z,904.00
2022-12-17T08:01:14.355Z,996.00
2022-12-17T08:02:14.394Z,996.00
2022-12-17T08:03:14.258Z,980.00
2022-12-17T08:04:14.175Z,1024.00
2022-12-17T08:05:14.162Z,1056.00
2022-12-17T08:06:14.152Z,1160.00
2022-12-17T08:07:14.439Z,1144.00
2022-12-17T08:08:14.141Z,1272.00
2022-12-17T08:09:14.118Z,1184.00
2022-12-17T08:10:14.115Z,1244.00
2022-12-17T08:11:14.117Z,1240.00
2022-12-17T08:12:14.087Z,1200.00
2022-12-17T08:13:14.540Z,1268.00
2022-12-17T08:14:14.066Z,1432.00
2022-12-17T08:15:14.056Z,1636.00
2022-12-17T08:16:14.132Z,1516.00
2022-12-17T08:17:14.033Z,1504.00
2022-12-17T08:18:14.024Z,1484.00
2022-12-17T08:19:14.010Z,1512.00
2022-12-17T08:20:14.000Z,1644.00
2022-12-17T08:21:13.988Z,1820.00
2022-12-17T08:22:13.979Z,1724.00
2022-12-17T08:23:13.969Z,1712.00
2022-12-17T08:24:13.956Z,1636.00
2022-12-17T08:25:13.944Z,1780.00
2022-12-17T08:26:13.935Z,1620.00
2022-12-17T08:27:13.927Z,1672.00
2022-12-17T08:28:41.232Z,1744.00
2022-12-17T08:29:14.931Z,1788.00
2022-12-17T08:30:13.894Z,1808.00
2022-12-17T08:31:13.986Z,1956.00
2022-12-17T08:32:13.893Z,1988.00
2022-12-17T08:33:13.871Z,2016.00
2022-12-17T08:34:13.851Z,1868.00
2022-12-17T08:35:13.841Z,2128.00
2022-12-17T08:36:13.827Z,2344.00
2022-12-17T08:37:13.815Z,2572.00
2022-12-17T08:38:13.805Z,2424.00
2022-12-17T08:39:14.045Z,2316.00
2022-12-17T08:40:13.795Z,2304.00
2022-12-17T08:41:13.800Z,2576.00
2022-12-17T08:42:13.764Z,2588.00
2022-12-17T08:43:13.750Z,2788.00
2022-12-17T08:44:13.741Z,2764.00
2022-12-17T08:45:13.736Z,2996.00
2022-12-17T08:46:13.777Z,3040.00
2022-12-17T08:47:13.731Z,3188.00
2022-12-17T08:48:13.837Z,3176.00
2022-12-17T08:49:13.684Z,3112.00
2022-12-17T08:50:13.678Z,3480.00
2022-12-17T08:51:13.665Z,3448.00
2022-12-17T08:52:13.653Z,3836.00
2022-12-17T08:53:13.643Z,3624.00
2022-12-17T08:54:13.634Z,4512.00
2022-12-17T08:55:13.624Z,4060.00
2022-12-17T08:56:13.609Z,3672.00
2022-12-17T08:57:22.579Z,4096.00
2022-12-17T08:58:13.586Z,3672.00
2022-12-17T08:59:13.576Z,4268.00
2022-12-17T09:00:13.568Z,4464.00
2022-12-17T09:01:13.649Z,4012.00
2022-12-17T09:02:13.827Z,4208.00
2022-12-17T09:03:13.661Z,4136.00
2022-12-17T09:04:13.547Z,3988.00
2022-12-17T09:05:13.508Z,4196.00
2022-12-17T09:06:13.496Z,4272.00
2022-12-17T09:07:13.485Z,4272.00
2022-12-17T09:08:13.477Z,4724.00
2022-12-17T09:09:13.465Z,3960.00
2022-12-17T09:10:13.454Z,4992.00
2022-12-17T09:11:13.461Z,5280.00
2022-12-17T09:12:13.430Z,5064.00
2022-12-17T09:13:13.418Z,4892.00
2022-12-17T09:14:13.406Z,5156.00
2022-12-17T09:15:13.395Z,5472.00
2022-12-17T09:16:13.462Z,5404.00
2022-12-17T09:17:13.376Z,5676.00
2022-12-17T09:18:13.368Z,6976.00
2022-12-17T09:19:13.353Z,6880.00
2022-12-17T09:20:13.370Z,5716.00
2022-12-17T09:21:13.333Z,5796.00
2022-12-17T09:22:13.325Z,5516.00
2022-12-17T09:23:13.310Z,5580.00
2022-12-17T09:24:13.304Z,6304.00
2022-12-17T09:25:13.283Z,6152.00
2022-12-17T09:26:13.275Z,6556.00
2022-12-17T09:27:13.265Z,6484.00
2022-12-17T09:28:13.257Z,5540.00
2022-12-17T09:29:13.242Z,7256.00
2022-12-17T09:30:13.239Z,7736.00
2022-12-17T09:31:13.268Z,6632.00
2022-12-17T09:32:13.216Z,7616.00
2022-12-17T09:33:13.198Z,6912.00
2022-12-17T09:34:13.188Z,7068.00
2022-12-17T09:35:13.177Z,7256.00
2022-12-17T09:36:13.189Z,7512.00
2022-12-17T09:37:13.157Z,7504.00
2022-12-17T09:38:13.146Z,6912.00
2022-12-17T09:39:13.141Z,7352.00
2022-12-17T09:40:13.123Z,6124.00
2022-12-17T09:41:13.109Z,5552.00
2022-12-17T09:42:13.102Z,5472.00
2022-12-17T09:43:13.093Z,5712.00
2022-12-17T09:44:13.078Z,6320.00
2022-12-17T09:45:13.073Z,6820.00
2022-12-17T09:46:13.127Z,6136.00
2022-12-17T09:47:13.054Z,5388.00
2022-12-17T09:48:13.038Z,4992.00
2022-12-17T09:49:13.025Z,5352.00
2022-12-17T09:50:13.259Z,5360.00
2022-12-17T09:51:13.001Z,5220.00
2022-12-17T09:52:13.014Z,4844.00
2022-12-17T09:53:12.981Z,4788.00
2022-12-17T09:54:12.966Z,5476.00
2022-12-17T09:55:12.957Z,7128.00
2022-12-17T09:56:13.021Z,8336.00
2022-12-17T09:57:12.937Z,7836.00
2022-12-17T09:58:12.923Z,7996.00
2022-12-17T09:59:12.909Z,8716.00
2022-12-17T10:00:12.904Z,9480.00
2022-12-17T10:01:13.031Z,8568.00
2022-12-17T10:02:13.082Z,7896.00
2022-12-17T10:03:12.930Z,11380.00
2022-12-17T10:04:12.866Z,9580.00
2022-12-17T10:05:12.846Z,10140.00
2022-12-17T10:06:15.619Z,9756.00
2022-12-17T10:07:12.875Z,9812.00
2022-12-17T10:08:12.834Z,8960.00
2022-12-17T10:09:12.800Z,9612.00
2022-12-17T10:10:12.789Z,9268.00
2022-12-17T10:11:12.781Z,8556.00
2022-12-17T10:12:12.775Z,8336.00
2022-12-17T10:13:12.759Z,8200.00
2022-12-17T10:14:12.747Z,7804.00
2022-12-17T10:15:12.741Z,6892.00
2022-12-17T10:16:12.885Z,5644.00
2022-12-17T10:17:12.719Z,5956.00
2022-12-17T10:18:12.698Z,5624.00
2022-12-17T10:19:12.690Z,5812.00
2022-12-17T10:20:12.676Z,5912.00
2022-12-17T10:21:12.667Z,6808.00
2022-12-17T10:22:12.657Z,6368.00
2022-12-17T10:23:12.645Z,6552.00
2022-12-17T10:24:18.367Z,7080.00
2022-12-17T10:25:12.622Z,6248.00
2022-12-17T10:26:12.622Z,7020.00
2022-12-17T10:27:12.601Z,6672.00
2022-12-17T10:28:12.590Z,7236.00
2022-12-17T10:29:12.581Z,7820.00
2022-12-17T10:30:12.565Z,7916.00
2022-12-17T10:31:12.650Z,7100.00
2022-12-17T10:32:12.553Z,6772.00
2022-12-17T10:33:12.534Z,7744.00
2022-12-17T10:34:12.535Z,7160.00
2022-12-17T10:35:12.516Z,7860.00
2022-12-17T10:36:12.500Z,7136.00
2022-12-17T10:37:12.499Z,6608.00
2022-12-17T10:38:12.480Z,8292.00
2022-12-17T10:39:12.468Z,6532.00
2022-12-17T10:40:12.484Z,8220.00
2022-12-17T10:41:12.452Z,6516.00
2022-12-17T10:42:12.433Z,7584.00
2022-12-17T10:43:12.424Z,7100.00
2022-12-17T10:44:12.432Z,7120.00
2022-12-17T10:45:12.399Z,7084.00
2022-12-17T10:46:12.459Z,6868.00
2022-12-17T10:47:12.379Z,6396.00
2022-12-17T10:48:12.366Z,7404.00
2022-12-17T10:49:12.396Z,6712.00
2022-12-17T10:50:12.353Z,6728.00
2022-12-17T10:51:12.345Z,6996.00
2022-12-17T10:52:12.361Z,7436.00
2022-12-17T10:53:12.324Z,7040.00
2022-12-17T10:54:12.311Z,7360.00
2022-12-17T10:55:12.297Z,7428.00
2022-12-17T10:56:12.311Z,6880.00
2022-12-17T10:57:12.295Z,7616.00
2022-12-17T10:58:12.267Z,8620.00
2022-12-17T10:59:12.256Z,6900.00
2022-12-17T11:00:12.249Z,7276.00
2022-12-17T11:01:12.418Z,7628.00
2022-12-17T11:02:12.413Z,6424.00
2022-12-17T11:03:12.343Z,7040.00
2022-12-17T11:04:12.194Z,6356.00
2022-12-17T11:05:12.178Z,7620.00
2022-12-17T11:06:12.172Z,7172.00
2022-12-17T11:07:12.159Z,6976.00
2022-12-17T11:08:12.150Z,7272.00
2022-12-17T11:09:12.137Z,7604.00
2022-12-17T11:10:12.121Z,7476.00
2022-12-17T11:11:12.121Z,6504.00
2022-12-17T11:12:12.121Z,7428.00
2022-12-17T11:13:12.093Z,6824.00
2022-12-17T11:14:12.076Z,7696.00
2022-12-17T11:15:12.090Z,7116.00
2022-12-17T11:16:12.163Z,7264.00
2022-12-17T11:17:12.046Z,7416.00
2022-12-17T11:18:12.160Z,7712.00
2022-12-17T11:19:12.025Z,7484.00
2022-12-17T11:20:12.010Z,8060.00
2022-12-17T11:21:12.002Z,6816.00
2022-12-17T11:22:11.990Z,7268.00
2022-12-17T11:23:11.980Z,8828.00
2022-12-17T11:24:11.969Z,9124.00
2022-12-17T11:25:12.019Z,7684.00
2022-12-17T11:26:11.948Z,7048.00
2022-12-17T11:27:11.942Z,7220.00
2022-12-17T11:28:11.947Z,6836.00
2022-12-17T11:29:11.915Z,7236.00
2022-12-17T11:30:11.904Z,7652.00
2022-12-17T11:31:11.966Z,7084.00
2022-12-17T11:32:11.884Z,8172.00
2022-12-17T11:33:11.873Z,7372.00
2022-12-17T11:34:11.874Z,7148.00
2022-12-17T11:35:11.866Z,6844.00
2022-12-17T11:36:11.844Z,7384.00
2022-12-17T11:37:11.830Z,6756.00
2022-12-17T11:38:11.816Z,6768.00
2022-12-17T11:39:11.817Z,6984.00
2022-12-17T11:40:11.795Z,7220.00
2022-12-17T11:41:11.799Z,6708.00
2022-12-17T11:42:11.853Z,7332.00
2022-12-17T11:43:11.768Z,7144.00
2022-12-17T11:44:11.826Z,6688.00
2022-12-17T11:45:11.769Z,6952.00
2022-12-17T11:46:11.773Z,7416.00
2022-12-17T11:47:11.718Z,6884.00
2022-12-17T11:48:11.709Z,7020.00
2022-12-17T11:49:11.701Z,7960.00
2022-12-17T11:50:11.686Z,7264.00
2022-12-17T11:51:11.674Z,7248.00
2022-12-17T11:52:11.661Z,6612.00
2022-12-17T11:53:11.653Z,7256.00
2022-12-17T11:54:11.642Z,6556.00
2022-12-17T11:55:11.659Z,6780.00
2022-12-17T11:56:11.622Z,7216.00
2022-12-17T11:57:11.610Z,7948.00
2022-12-17T11:58:11.604Z,7596.00
2022-12-17T11:59:11.589Z,7236.00
2022-12-17T12:00:11.603Z,7120.00
2022-12-17T12:01:11.572Z,8044.00
2022-12-17T12:02:11.564Z,9272.00
2022-12-17T12:03:11.637Z,6944.00
2022-12-17T12:04:11.601Z,7816.00
2022-12-17T12:05:11.526Z,7908.00
2022-12-17T12:06:11.511Z,8272.00
2022-12-17T12:07:11.506Z,7536.00
2022-12-17T12:08:11.489Z,7816.00
2022-12-17T12:09:11.518Z,7792.00
2022-12-17T12:10:11.584Z,8632.00
2022-12-17T12:11:11.467Z,7720.00
2022-12-17T12:12:11.448Z,8868.00
2022-12-17T12:13:11.439Z,7376.00
2022-12-17T12:14:11.424Z,6796.00
2022-12-17T12:15:11.422Z,6328.00
2022-12-17T12:16:11.499Z,5700.00
2022-12-17T12:17:11.399Z,5984.00
2022-12-17T12:18:11.383Z,5768.00
2022-12-17T12:19:11.376Z,5940.00
2022-12-17T12:20:11.497Z,5624.00
2022-12-17T12:21:11.365Z,6204.00
2022-12-17T12:22:11.342Z,5912.00
2022-12-17T12:23:11.329Z,6028.00
2022-12-17T12:24:11.314Z,6268.00
2022-12-17T12:25:11.310Z,5972.00
2022-12-17T12:26:11.293Z,6120.00
2022-12-17T12:27:11.284Z,6360.00
2022-12-17T12:28:11.273Z,6808.00
2022-12-17T12:29:11.262Z,6784.00
2022-12-17T12:30:11.343Z,6592.00
2022-12-17T12:31:11.347Z,6460.00
2022-12-17T12:32:11.252Z,6932.00
2022-12-17T12:33:11.261Z,7136.00
2022-12-17T12:34:11.331Z,7152.00
2022-12-17T12:35:11.200Z,6840.00
2022-12-17T12:36:11.184Z,7620.00
2022-12-17T12:37:11.177Z,7968.00
2022-12-17T12:38:11.162Z,7432.00
2022-12-17T12:39:11.157Z,8148.00
2022-12-17T12:40:11.147Z,8608.00
2022-12-17T12:41:11.131Z,7680.00
2022-12-17T12:42:11.253Z,6864.00
2022-12-17T12:43:11.112Z,7852.00
2022-12-17T12:44:11.111Z,7908.00
2022-12-17T12:45:11.089Z,7204.00
2022-12-17T12:46:11.140Z,7592.00